sensor_id;sensor_type;location;lat;lon;timestamp;P1;durP1;ratioP1;P2;durP2;ratioP2
70010;SDS011;59543;37.950;-122.338;2023-08-06T00:00:55;21.40;;;5.80;;
70010;SDS011;59543;37.950;-122.338;2023-08-06T00:03:21;18.65;;;5.00;;
70010;SDS011;59543;37.950;-122.338;2023-08-06T00:05:47;33.05;;;5.53;;
70010;SDS011;59543;37.950;-122.338;2023-08-06T00:08:13;20.92;;;5.07;;
70010;SDS011;59543;37.950;-122.338;2023-08-06T00:10:39;24.00;;;5.45;;
70010;SDS011;59543;37.950;-122.338;2023-08-06T00:13:06;24.98;;;5.93;;
70010;SDS011;59543;37.950;-122.338;2023-08-06T00:15:33;27.17;;;5.82;;
70010;SDS011;59543;37.950;-122.338;2023-08-06T00:17:59;24.55;;;5.60;;
70010;SDS011;59543;37.950;-122.338;2023-08-06T00:20:25;22.08;;;5.70;;
70010;SDS011;59543;37.950;-122.338;2023-08-06T00:22:51;19.05;;;5.25;;
70010;SDS011;59543;37.950;-122.338;2023-08-06T00:25:18;28.40;;;5.88;;
70010;SDS011;59543;37.950;-122.338;2023-08-06T00:27:45;22.77;;;4.97;;
70010;SDS011;59543;37.950;-122.338;2023-08-06T00:30:11;22.63;;;5.80;;
70010;SDS011;59543;37.950;-122.338;2023-08-06T00:32:37;25.33;;;5.63;;
70010;SDS011;59543;37.950;-122.338;2023-08-06T00:35:03;17.65;;;5.03;;
70010;SDS011;59543;37.950;-122.338;2023-08-06T00:37:30;19.17;;;5.40;;
70010;SDS011;59543;37.950;-122.338;2023-08-06T00:39:56;21.75;;;5.30;;
70010;SDS011;59543;37.950;-122.338;2023-08-06T00:42:23;15.20;;;4.63;;
70010;SDS011;59543;37.950;-122.338;2023-08-06T00:44:49;19.65;;;5.38;;
70010;SDS011;59543;37.950;-122.338;2023-08-06T00:47:15;26.63;;;6.50;;
70010;SDS011;59543;37.950;-122.338;2023-08-06T00:49:42;18.20;;;5.53;;
70010;SDS011;59543;37.950;-122.338;2023-08-06T00:52:09;22.88;;;5.70;;
70010;SDS011;59543;37.950;-122.338;2023-08-06T00:54:35;25.30;;;6.60;;
70010;SDS011;59543;37.950;-122.338;2023-08-06T00:57:02;25.95;;;6.05;;
70010;SDS011;59543;37.950;-122.338;2023-08-06T00:59:30;28.92;;;6.35;;
70010;SDS011;59543;37.950;-122.338;2023-08-06T01:01:57;18.80;;;5.82;;
70010;SDS011;59543;37.950;-122.338;2023-08-06T01:04:23;25.95;;;6.20;;
70010;SDS011;59543;37.950;-122.338;2023-08-06T01:07:12;30.05;;;6.93;;
70010;SDS011;59543;37.950;-122.338;2023-08-06T01:09:43;27.02;;;6.63;;
70010;SDS011;59543;37.950;-122.338;2023-08-06T01:15:19;21.25;;;6.20;;
70010;SDS011;59543;37.950;-122.338;2023-08-06T01:17:50;26.80;;;7.30;;
70010;SDS011;59543;37.950;-122.338;2023-08-06T01:20:17;22.25;;;6.28;;
70010;SDS011;59543;37.950;-122.338;2023-08-06T01:22:43;32.92;;;6.50;;
70010;SDS011;59543;37.950;-122.338;2023-08-06T01:25:09;21.38;;;6.15;;
70010;SDS011;59543;37.950;-122.338;2023-08-06T01:27:49;27.30;;;7.10;;
70010;SDS011;59543;37.950;-122.338;2023-08-06T01:30:16;25.42;;;6.35;;
70010;SDS011;59543;37.950;-122.338;2023-08-06T01:32:49;26.63;;;7.70;;
70010;SDS011;59543;37.950;-122.338;2023-08-06T01:35:19;26.50;;;6.78;;
70010;SDS011;59543;37.950;-122.338;2023-08-06T01:37:47;28.25;;;6.85;;
70010;SDS011;59543;37.950;-122.338;2023-08-06T01:40:14;31.70;;;7.25;;
70010;SDS011;59543;37.950;-122.338;2023-08-06T01:42:40;35.33;;;7.30;;
70010;SDS011;59543;37.950;-122.338;2023-08-06T01:45:07;30.42;;;7.78;;
70010;SDS011;59543;37.950;-122.338;2023-08-06T01:47:34;22.20;;;6.65;;
70010;SDS011;59543;37.950;-122.338;2023-08-06T01:50:01;23.25;;;6.38;;
70010;SDS011;59543;37.950;-122.338;2023-08-06T01:52:28;27.77;;;6.80;;
70010;SDS011;59543;37.950;-122.338;2023-08-06T01:54:54;23.13;;;6.80;;
70010;SDS011;59543;37.950;-122.338;2023-08-06T01:57:21;20.25;;;6.40;;
70010;SDS011;59543;37.950;-122.338;2023-08-06T01:59:47;23.17;;;7.03;;
70010;SDS011;59543;37.950;-122.338;2023-08-06T02:02:14;21.05;;;6.07;;
70010;SDS011;59543;37.950;-122.338;2023-08-06T02:04:40;30.05;;;6.40;;
70010;SDS011;59543;37.950;-122.338;2023-08-06T02:07:06;26.98;;;6.55;;
70010;SDS011;59543;37.950;-122.338;2023-08-06T02:09:32;21.40;;;6.50;;
70010;SDS011;59543;37.950;-122.338;2023-08-06T02:12:00;21.98;;;6.07;;
70010;SDS011;59543;37.950;-122.338;2023-08-06T02:14:27;22.33;;;6.38;;
70010;SDS011;59543;37.950;-122.338;2023-08-06T02:16:54;19.02;;;5.32;;
70010;SDS011;59543;37.950;-122.338;2023-08-06T02:19:20;19.33;;;6.55;;
70010;SDS011;59543;37.950;-122.338;2023-08-06T02:21:46;22.85;;;6.13;;
70010;SDS011;59543;37.950;-122.338;2023-08-06T02:24:12;22.52;;;6.18;;
70010;SDS011;59543;37.950;-122.338;2023-08-06T02:26:39;18.77;;;6.25;;
70010;SDS011;59543;37.950;-122.338;2023-08-06T02:29:05;23.05;;;6.47;;
70010;SDS011;59543;37.950;-122.338;2023-08-06T02:31:31;21.60;;;6.47;;
70010;SDS011;59543;37.950;-122.338;2023-08-06T02:33:57;17.80;;;6.13;;
70010;SDS011;59543;37.950;-122.338;2023-08-06T02:36:24;26.20;;;6.47;;
70010;SDS011;59543;37.950;-122.338;2023-08-06T02:38:54;20.92;;;6.72;;
70010;SDS011;59543;37.950;-122.338;2023-08-06T02:41:21;30.90;;;7.53;;
70010;SDS011;59543;37.950;-122.338;2023-08-06T02:43:47;23.85;;;7.25;;
70010;SDS011;59543;37.950;-122.338;2023-08-06T02:46:13;28.40;;;7.40;;
70010;SDS011;59543;37.950;-122.338;2023-08-06T02:48:40;27.45;;;7.68;;
70010;SDS011;59543;37.950;-122.338;2023-08-06T02:51:06;28.73;;;7.78;;
70010;SDS011;59543;37.950;-122.338;2023-08-06T02:53:32;34.53;;;9.05;;
70010;SDS011;59543;37.950;-122.338;2023-08-06T02:55:59;36.38;;;9.38;;
70010;SDS011;59543;37.950;-122.338;2023-08-06T02:58:25;30.35;;;8.18;;
70010;SDS011;59543;37.950;-122.338;2023-08-06T03:01:01;30.20;;;8.82;;
70010;SDS011;59543;37.950;-122.338;2023-08-06T03:03:32;36.30;;;9.23;;
70010;SDS011;59543;37.950;-122.338;2023-08-06T03:05:59;38.25;;;9.77;;
70010;SDS011;59543;37.950;-122.338;2023-08-06T03:08:26;36.70;;;9.75;;
70010;SDS011;59543;37.950;-122.338;2023-08-06T03:10:52;37.58;;;10.10;;
70010;SDS011;59543;37.950;-122.338;2023-08-06T03:13:19;32.85;;;9.23;;
70010;SDS011;59543;37.950;-122.338;2023-08-06T03:15:52;42.78;;;9.65;;
70010;SDS011;59543;37.950;-122.338;2023-08-06T03:18:22;43.05;;;10.32;;
70010;SDS011;59543;37.950;-122.338;2023-08-06T03:20:51;42.05;;;10.55;;
70010;SDS011;59543;37.950;-122.338;2023-08-06T03:23:18;46.92;;;10.73;;
70010;SDS011;59543;37.950;-122.338;2023-08-06T03:25:44;41.53;;;10.57;;
70010;SDS011;59543;37.950;-122.338;2023-08-06T03:28:11;40.88;;;10.07;;
70010;SDS011;59543;37.950;-122.338;2023-08-06T03:30:38;44.50;;;10.68;;
70010;SDS011;59543;37.950;-122.338;2023-08-06T03:33:04;37.13;;;11.27;;
70010;SDS011;59543;37.950;-122.338;2023-08-06T03:35:31;41.38;;;10.95;;
70010;SDS011;59543;37.950;-122.338;2023-08-06T03:37:57;40.50;;;9.82;;
70010;SDS011;59543;37.950;-122.338;2023-08-06T03:40:23;41.88;;;10.93;;
70010;SDS011;59543;37.950;-122.338;2023-08-06T03:42:50;37.95;;;9.90;;
70010;SDS011;59543;37.950;-122.338;2023-08-06T03:45:16;45.65;;;10.18;;
70010;SDS011;59543;37.950;-122.338;2023-08-06T03:47:43;47.13;;;10.55;;
70010;SDS011;59543;37.950;-122.338;2023-08-06T03:50:09;46.60;;;11.35;;
70010;SDS011;59543;37.950;-122.338;2023-08-06T03:52:35;39.92;;;10.48;;
70010;SDS011;59543;37.950;-122.338;2023-08-06T03:55:02;48.65;;;10.65;;
70010;SDS011;59543;37.950;-122.338;2023-08-06T03:57:28;47.10;;;11.73;;
70010;SDS011;59543;37.950;-122.338;2023-08-06T03:59:54;36.45;;;10.13;;
70010;SDS011;59543;37.950;-122.338;2023-08-06T04:02:21;35.67;;;10.25;;
70010;SDS011;59543;37.950;-122.338;2023-08-06T04:04:47;34.38;;;10.25;;
70010;SDS011;59543;37.950;-122.338;2023-08-06T04:07:14;39.58;;;10.57;;
70010;SDS011;59543;37.950;-122.338;2023-08-06T04:09:59;37.05;;;10.05;;
70010;SDS011;59543;37.950;-122.338;2023-08-06T04:12:28;38.00;;;10.38;;
70010;SDS011;59543;37.950;-122.338;2023-08-06T04:14:55;43.10;;;10.32;;
70010;SDS011;59543;37.950;-122.338;2023-08-06T04:17:23;36.25;;;10.02;;
70010;SDS011;59543;37.950;-122.338;2023-08-06T04:19:53;47.22;;;11.27;;
70010;SDS011;59543;37.950;-122.338;2023-08-06T04:22:20;40.50;;;9.73;;
70010;SDS011;59543;37.950;-122.338;2023-08-06T04:24:47;41.00;;;10.00;;
70010;SDS011;59543;37.950;-122.338;2023-08-06T04:27:14;40.55;;;10.80;;
70010;SDS011;59543;37.950;-122.338;2023-08-06T04:29:41;43.10;;;10.82;;
70010;SDS011;59543;37.950;-122.338;2023-08-06T04:32:08;39.20;;;10.40;;
70010;SDS011;59543;37.950;-122.338;2023-08-06T04:34:35;43.33;;;11.07;;
70010;SDS011;59543;37.950;-122.338;2023-08-06T04:37:03;38.13;;;10.55;;
70010;SDS011;59543;37.950;-122.338;2023-08-06T04:39:30;45.10;;;10.55;;
70010;SDS011;59543;37.950;-122.338;2023-08-06T04:41:56;37.63;;;10.82;;
70010;SDS011;59543;37.950;-122.338;2023-08-06T04:44:22;43.05;;;11.38;;
70010;SDS011;59543;37.950;-122.338;2023-08-06T04:46:49;42.05;;;10.32;;
70010;SDS011;59543;37.950;-122.338;2023-08-06T04:49:15;41.17;;;10.43;;
70010;SDS011;59543;37.950;-122.338;2023-08-06T04:51:42;37.58;;;11.15;;
70010;SDS011;59543;37.950;-122.338;2023-08-06T04:54:08;38.00;;;10.40;;
70010;SDS011;59543;37.950;-122.338;2023-08-06T04:56:35;41.97;;;11.05;;
70010;SDS011;59543;37.950;-122.338;2023-08-06T04:59:01;46.70;;;11.77;;
70010;SDS011;59543;37.950;-122.338;2023-08-06T05:01:27;38.45;;;10.48;;
70010;SDS011;59543;37.950;-122.338;2023-08-06T05:03:54;45.70;;;11.60;;
70010;SDS011;59543;37.950;-122.338;2023-08-06T05:06:20;42.72;;;10.70;;
70010;SDS011;59543;37.950;-122.338;2023-08-06T05:08:46;37.75;;;10.07;;
70010;SDS011;59543;37.950;-122.338;2023-08-06T05:11:13;51.22;;;12.10;;
70010;SDS011;59543;37.950;-122.338;2023-08-06T05:13:39;41.65;;;11.07;;
70010;SDS011;59543;37.950;-122.338;2023-08-06T05:16:05;36.08;;;10.70;;
70010;SDS011;59543;37.950;-122.338;2023-08-06T05:18:31;43.97;;;10.65;;
70010;SDS011;59543;37.950;-122.338;2023-08-06T05:20:59;51.35;;;11.93;;
70010;SDS011;59543;37.950;-122.338;2023-08-06T05:23:26;45.72;;;11.27;;
70010;SDS011;59543;37.950;-122.338;2023-08-06T05:25:52;42.88;;;10.93;;
70010;SDS011;59543;37.950;-122.338;2023-08-06T05:28:18;42.85;;;10.20;;
70010;SDS011;59543;37.950;-122.338;2023-08-06T05:30:44;41.30;;;10.02;;
70010;SDS011;59543;37.950;-122.338;2023-08-06T05:33:10;39.38;;;10.93;;
70010;SDS011;59543;37.950;-122.338;2023-08-06T05:35:37;39.40;;;10.80;;
70010;SDS011;59543;37.950;-122.338;2023-08-06T05:38:03;46.53;;;10.88;;
70010;SDS011;59543;37.950;-122.338;2023-08-06T05:40:29;49.13;;;11.00;;
70010;SDS011;59543;37.950;-122.338;2023-08-06T05:42:58;42.40;;;11.30;;
70010;SDS011;59543;37.950;-122.338;2023-08-06T05:45:24;50.00;;;11.15;;
70010;SDS011;59543;37.950;-122.338;2023-08-06T05:47:51;31.88;;;9.90;;
70010;SDS011;59543;37.950;-122.338;2023-08-06T05:50:19;38.35;;;10.43;;
70010;SDS011;59543;37.950;-122.338;2023-08-06T05:52:45;34.13;;;9.18;;
70010;SDS011;59543;37.950;-122.338;2023-08-06T05:55:12;43.40;;;10.60;;
70010;SDS011;59543;37.950;-122.338;2023-08-06T05:57:38;37.50;;;10.77;;
70010;SDS011;59543;37.950;-122.338;2023-08-06T06:00:04;39.35;;;10.25;;
70010;SDS011;59543;37.950;-122.338;2023-08-06T06:02:32;41.45;;;11.05;;
70010;SDS011;59543;37.950;-122.338;2023-08-06T06:04:58;34.55;;;9.90;;
70010;SDS011;59543;37.950;-122.338;2023-08-06T06:07:24;38.75;;;10.43;;
70010;SDS011;59543;37.950;-122.338;2023-08-06T06:09:50;43.33;;;9.90;;
70010;SDS011;59543;37.950;-122.338;2023-08-06T06:12:16;33.75;;;9.43;;
70010;SDS011;59543;37.950;-122.338;2023-08-06T06:14:43;39.90;;;10.80;;
70010;SDS011;59543;37.950;-122.338;2023-08-06T06:17:12;38.42;;;10.00;;
70010;SDS011;59543;37.950;-122.338;2023-08-06T06:19:38;39.08;;;10.95;;
70010;SDS011;59543;37.950;-122.338;2023-08-06T06:22:04;49.78;;;11.73;;
70010;SDS011;59543;37.950;-122.338;2023-08-06T06:24:30;41.40;;;10.55;;
70010;SDS011;59543;37.950;-122.338;2023-08-06T06:26:56;43.05;;;10.52;;
70010;SDS011;59543;37.950;-122.338;2023-08-06T06:29:23;46.65;;;11.63;;
70010;SDS011;59543;37.950;-122.338;2023-08-06T06:31:49;55.63;;;12.55;;
70010;SDS011;59543;37.950;-122.338;2023-08-06T06:34:15;41.15;;;10.35;;
70010;SDS011;59543;37.950;-122.338;2023-08-06T06:36:41;50.03;;;12.63;;
70010;SDS011;59543;37.950;-122.338;2023-08-06T06:39:08;54.75;;;10.43;;
70010;SDS011;59543;37.950;-122.338;2023-08-06T06:41:34;45.05;;;11.85;;
70010;SDS011;59543;37.950;-122.338;2023-08-06T06:44:00;42.40;;;11.18;;
70010;SDS011;59543;37.950;-122.338;2023-08-06T06:46:27;36.90;;;10.63;;
70010;SDS011;59543;37.950;-122.338;2023-08-06T06:48:53;51.60;;;11.40;;
70010;SDS011;59543;37.950;-122.338;2023-08-06T06:51:19;44.85;;;11.25;;
70010;SDS011;59543;37.950;-122.338;2023-08-06T06:53:45;49.55;;;12.10;;
70010;SDS011;59543;37.950;-122.338;2023-08-06T06:56:12;45.97;;;10.68;;
70010;SDS011;59543;37.950;-122.338;2023-08-06T06:58:38;46.70;;;11.60;;
70010;SDS011;59543;37.950;-122.338;2023-08-06T07:01:07;48.10;;;12.10;;
70010;SDS011;59543;37.950;-122.338;2023-08-06T07:03:35;47.63;;;14.07;;
70010;SDS011;59543;37.950;-122.338;2023-08-06T07:06:02;46.00;;;14.38;;
70010;SDS011;59543;37.950;-122.338;2023-08-06T07:08:29;46.05;;;12.77;;
70010;SDS011;59543;37.950;-122.338;2023-08-06T07:11:01;49.40;;;12.50;;
70010;SDS011;59543;37.950;-122.338;2023-08-06T07:13:29;49.92;;;12.48;;
70010;SDS011;59543;37.950;-122.338;2023-08-06T07:15:55;50.67;;;12.75;;
70010;SDS011;59543;37.950;-122.338;2023-08-06T07:18:22;51.42;;;12.93;;
70010;SDS011;59543;37.950;-122.338;2023-08-06T07:20:52;41.90;;;11.30;;
70010;SDS011;59543;37.950;-122.338;2023-08-06T07:23:20;50.90;;;12.15;;
70010;SDS011;59543;37.950;-122.338;2023-08-06T07:25:50;48.88;;;11.30;;
70010;SDS011;59543;37.950;-122.338;2023-08-06T07:28:17;47.25;;;12.10;;
70010;SDS011;59543;37.950;-122.338;2023-08-06T07:30:44;44.88;;;12.23;;
70010;SDS011;59543;37.950;-122.338;2023-08-06T07:33:11;50.08;;;12.25;;
70010;SDS011;59543;37.950;-122.338;2023-08-06T07:35:37;50.60;;;12.40;;
70010;SDS011;59543;37.950;-122.338;2023-08-06T07:38:03;52.92;;;12.40;;
70010;SDS011;59543;37.950;-122.338;2023-08-06T07:40:30;40.30;;;10.68;;
70010;SDS011;59543;37.950;-122.338;2023-08-06T07:42:56;50.60;;;11.73;;
70010;SDS011;59543;37.950;-122.338;2023-08-06T07:45:22;47.85;;;11.77;;
70010;SDS011;59543;37.950;-122.338;2023-08-06T07:47:49;54.38;;;12.15;;
70010;SDS011;59543;37.950;-122.338;2023-08-06T07:50:16;44.25;;;11.88;;
70010;SDS011;59543;37.950;-122.338;2023-08-06T07:52:42;42.75;;;11.23;;
70010;SDS011;59543;37.950;-122.338;2023-08-06T07:55:09;48.28;;;12.35;;
70010;SDS011;59543;37.950;-122.338;2023-08-06T07:57:35;42.45;;;11.65;;
70010;SDS011;59543;37.950;-122.338;2023-08-06T08:00:03;39.15;;;11.13;;
70010;SDS011;59543;37.950;-122.338;2023-08-06T08:02:30;46.92;;;12.95;;
70010;SDS011;59543;37.950;-122.338;2023-08-06T08:04:56;55.13;;;11.65;;
70010;SDS011;59543;37.950;-122.338;2023-08-06T08:07:22;41.13;;;10.75;;
70010;SDS011;59543;37.950;-122.338;2023-08-06T08:09:49;47.38;;;11.52;;
70010;SDS011;59543;37.950;-122.338;2023-08-06T08:12:15;42.78;;;11.02;;
70010;SDS011;59543;37.950;-122.338;2023-08-06T08:14:41;44.40;;;11.00;;
70010;SDS011;59543;37.950;-122.338;2023-08-06T08:17:10;55.45;;;13.00;;
70010;SDS011;59543;37.950;-122.338;2023-08-06T08:19:37;45.90;;;11.50;;
70010;SDS011;59543;37.950;-122.338;2023-08-06T08:22:03;44.95;;;11.10;;
70010;SDS011;59543;37.950;-122.338;2023-08-06T08:24:29;48.67;;;11.82;;
70010;SDS011;59543;37.950;-122.338;2023-08-06T08:26:56;49.70;;;12.43;;
70010;SDS011;59543;37.950;-122.338;2023-08-06T08:29:22;45.85;;;12.38;;
70010;SDS011;59543;37.950;-122.338;2023-08-06T08:31:48;50.78;;;12.82;;
70010;SDS011;59543;37.950;-122.338;2023-08-06T08:34:16;46.00;;;11.82;;
70010;SDS011;59543;37.950;-122.338;2023-08-06T08:36:42;55.58;;;13.30;;
70010;SDS011;59543;37.950;-122.338;2023-08-06T08:39:09;50.95;;;12.52;;
70010;SDS011;59543;37.950;-122.338;2023-08-06T08:41:35;53.40;;;12.55;;
70010;SDS011;59543;37.950;-122.338;2023-08-06T08:44:02;64.72;;;13.95;;
70010;SDS011;59543;37.950;-122.338;2023-08-06T08:46:30;56.20;;;13.75;;
70010;SDS011;59543;37.950;-122.338;2023-08-06T08:48:58;61.80;;;14.35;;
70010;SDS011;59543;37.950;-122.338;2023-08-06T08:51:27;55.88;;;13.68;;
70010;SDS011;59543;37.950;-122.338;2023-08-06T08:53:53;57.10;;;14.02;;
70010;SDS011;59543;37.950;-122.338;2023-08-06T08:56:24;58.47;;;13.55;;
70010;SDS011;59543;37.950;-122.338;2023-08-06T08:58:50;59.15;;;13.90;;
70010;SDS011;59543;37.950;-122.338;2023-08-06T09:01:20;53.65;;;11.65;;
70010;SDS011;59543;37.950;-122.338;2023-08-06T09:03:48;55.20;;;13.55;;
70010;SDS011;59543;37.950;-122.338;2023-08-06T09:06:15;61.53;;;12.88;;
70010;SDS011;59543;37.950;-122.338;2023-08-06T09:08:47;49.65;;;12.18;;
70010;SDS011;59543;37.950;-122.338;2023-08-06T09:11:45;45.88;;;12.73;;
70010;SDS011;59543;37.950;-122.338;2023-08-06T09:14:14;50.58;;;12.98;;
70010;SDS011;59543;37.950;-122.338;2023-08-06T09:16:40;49.75;;;12.23;;
70010;SDS011;59543;37.950;-122.338;2023-08-06T09:19:08;50.72;;;13.15;;
70010;SDS011;59543;37.950;-122.338;2023-08-06T09:21:38;61.15;;;14.00;;
70010;SDS011;59543;37.950;-122.338;2023-08-06T09:24:09;59.22;;;13.75;;
70010;SDS011;59543;37.950;-122.338;2023-08-06T09:26:38;61.53;;;13.65;;
70010;SDS011;59543;37.950;-122.338;2023-08-06T09:29:06;53.28;;;12.82;;
70010;SDS011;59543;37.950;-122.338;2023-08-06T09:31:54;49.53;;;13.18;;
70010;SDS011;59543;37.950;-122.338;2023-08-06T09:34:22;64.97;;;15.30;;
70010;SDS011;59543;37.950;-122.338;2023-08-06T09:36:50;59.53;;;14.13;;
70010;SDS011;59543;37.950;-122.338;2023-08-06T09:39:18;52.03;;;12.63;;
70010;SDS011;59543;37.950;-122.338;2023-08-06T09:41:46;62.83;;;14.25;;
70010;SDS011;59543;37.950;-122.338;2023-08-06T09:44:18;52.42;;;12.95;;
70010;SDS011;59543;37.950;-122.338;2023-08-06T09:46:50;61.22;;;14.07;;
70010;SDS011;59543;37.950;-122.338;2023-08-06T09:49:25;74.05;;;15.27;;
70010;SDS011;59543;37.950;-122.338;2023-08-06T09:51:52;60.60;;;14.55;;
70010;SDS011;59543;37.950;-122.338;2023-08-06T09:54:24;58.28;;;14.32;;
70010;SDS011;59543;37.950;-122.338;2023-08-06T09:56:55;56.78;;;13.60;;
70010;SDS011;59543;37.950;-122.338;2023-08-06T09:59:25;63.38;;;14.60;;
70010;SDS011;59543;37.950;-122.338;2023-08-06T10:01:52;62.00;;;14.25;;
70010;SDS011;59543;37.950;-122.338;2023-08-06T10:04:22;58.88;;;14.15;;
70010;SDS011;59543;37.950;-122.338;2023-08-06T10:06:49;62.78;;;14.80;;
70010;SDS011;59543;37.950;-122.338;2023-08-06T10:09:16;57.47;;;13.80;;
70010;SDS011;59543;37.950;-122.338;2023-08-06T10:11:43;63.30;;;14.40;;
70010;SDS011;59543;37.950;-122.338;2023-08-06T10:14:16;71.43;;;15.48;;
70010;SDS011;59543;37.950;-122.338;2023-08-06T10:16:51;58.22;;;13.82;;
70010;SDS011;59543;37.950;-122.338;2023-08-06T10:19:18;76.97;;;14.43;;
70010;SDS011;59543;37.950;-122.338;2023-08-06T10:27:12;66.38;;;14.05;;
70010;SDS011;59543;37.950;-122.338;2023-08-06T10:29:38;60.78;;;14.25;;
70010;SDS011;59543;37.950;-122.338;2023-08-06T10:32:04;67.18;;;15.02;;
70010;SDS011;59543;37.950;-122.338;2023-08-06T10:37:22;63.72;;;14.65;;
70010;SDS011;59543;37.950;-122.338;2023-08-06T10:40:09;63.58;;;14.68;;
70010;SDS011;59543;37.950;-122.338;2023-08-06T10:42:35;62.53;;;14.30;;
70010;SDS011;59543;37.950;-122.338;2023-08-06T10:45:17;66.18;;;14.23;;
70010;SDS011;59543;37.950;-122.338;2023-08-06T10:47:45;64.70;;;14.18;;
70010;SDS011;59543;37.950;-122.338;2023-08-06T10:50:13;58.63;;;13.10;;
70010;SDS011;59543;37.950;-122.338;2023-08-06T10:52:46;57.65;;;14.18;;
70010;SDS011;59543;37.950;-122.338;2023-08-06T10:55:13;67.28;;;16.17;;
70010;SDS011;59543;37.950;-122.338;2023-08-06T10:57:47;67.03;;;14.38;;
70010;SDS011;59543;37.950;-122.338;2023-08-06T11:00:13;73.43;;;15.10;;
70010;SDS011;59543;37.950;-122.338;2023-08-06T11:02:41;71.60;;;15.05;;
70010;SDS011;59543;37.950;-122.338;2023-08-06T11:05:09;55.15;;;13.82;;
70010;SDS011;59543;37.950;-122.338;2023-08-06T11:07:36;69.88;;;14.10;;
70010;SDS011;59543;37.950;-122.338;2023-08-06T11:10:03;62.55;;;14.48;;
70010;SDS011;59543;37.950;-122.338;2023-08-06T11:12:32;62.28;;;15.07;;
70010;SDS011;59543;37.950;-122.338;2023-08-06T11:14:59;66.22;;;14.63;;
70010;SDS011;59543;37.950;-122.338;2023-08-06T11:17:29;72.88;;;14.05;;
70010;SDS011;59543;37.950;-122.338;2023-08-06T11:20:04;64.68;;;14.27;;
70010;SDS011;59543;37.950;-122.338;2023-08-06T11:22:30;61.67;;;15.00;;
70010;SDS011;59543;37.950;-122.338;2023-08-06T11:24:57;62.00;;;15.35;;
70010;SDS011;59543;37.950;-122.338;2023-08-06T11:27:25;65.43;;;14.73;;
70010;SDS011;59543;37.950;-122.338;2023-08-06T11:29:53;58.78;;;13.18;;
70010;SDS011;59543;37.950;-122.338;2023-08-06T11:32:19;60.67;;;13.73;;
70010;SDS011;59543;37.950;-122.338;2023-08-06T11:34:46;60.53;;;14.20;;
70010;SDS011;59543;37.950;-122.338;2023-08-06T11:37:12;61.05;;;14.25;;
70010;SDS011;59543;37.950;-122.338;2023-08-06T11:39:38;60.55;;;14.57;;
70010;SDS011;59543;37.950;-122.338;2023-08-06T11:42:09;59.17;;;13.60;;
70010;SDS011;59543;37.950;-122.338;2023-08-06T11:44:37;69.63;;;15.43;;
70010;SDS011;59543;37.950;-122.338;2023-08-06T11:47:04;76.05;;;14.32;;
70010;SDS011;59543;37.950;-122.338;2023-08-06T11:50:04;62.28;;;13.85;;
70010;SDS011;59543;37.950;-122.338;2023-08-06T11:52:23;68.07;;;15.32;;
70010;SDS011;59543;37.950;-122.338;2023-08-06T11:55:04;70.38;;;15.57;;
70010;SDS011;59543;37.950;-122.338;2023-08-06T11:57:33;73.10;;;15.27;;
70010;SDS011;59543;37.950;-122.338;2023-08-06T12:00:05;64.03;;;14.93;;
70010;SDS011;59543;37.950;-122.338;2023-08-06T12:02:33;69.47;;;15.30;;
70010;SDS011;59543;37.950;-122.338;2023-08-06T12:05:21;59.38;;;13.68;;
70010;SDS011;59543;37.950;-122.338;2023-08-06T12:10:21;58.13;;;13.20;;
70010;SDS011;59543;37.950;-122.338;2023-08-06T12:12:49;53.20;;;13.30;;
70010;SDS011;59543;37.950;-122.338;2023-08-06T12:15:16;57.88;;;13.32;;
70010;SDS011;59543;37.950;-122.338;2023-08-06T12:17:43;57.30;;;12.63;;
70010;SDS011;59543;37.950;-122.338;2023-08-06T12:20:09;54.30;;;12.65;;
70010;SDS011;59543;37.950;-122.338;2023-08-06T12:22:36;49.95;;;12.10;;
70010;SDS011;59543;37.950;-122.338;2023-08-06T12:25:05;52.10;;;13.35;;
70010;SDS011;59543;37.950;-122.338;2023-08-06T12:27:34;50.67;;;12.63;;
70010;SDS011;59543;37.950;-122.338;2023-08-06T12:30:01;54.70;;;13.30;;
70010;SDS011;59543;37.950;-122.338;2023-08-06T12:32:29;49.42;;;12.18;;
70010;SDS011;59543;37.950;-122.338;2023-08-06T12:34:55;53.42;;;12.30;;
70010;SDS011;59543;37.950;-122.338;2023-08-06T12:37:21;59.40;;;12.77;;
70010;SDS011;59543;37.950;-122.338;2023-08-06T12:39:48;49.83;;;12.60;;
70010;SDS011;59543;37.950;-122.338;2023-08-06T12:42:15;49.00;;;12.52;;
70010;SDS011;59543;37.950;-122.338;2023-08-06T12:44:41;42.53;;;11.50;;
70010;SDS011;59543;37.950;-122.338;2023-08-06T12:47:08;49.28;;;12.75;;
70010;SDS011;59543;37.950;-122.338;2023-08-06T12:49:34;49.72;;;11.98;;
70010;SDS011;59543;37.950;-122.338;2023-08-06T12:52:01;53.15;;;13.10;;
70010;SDS011;59543;37.950;-122.338;2023-08-06T12:54:30;43.58;;;11.77;;
70010;SDS011;59543;37.950;-122.338;2023-08-06T12:57:02;50.03;;;11.73;;
70010;SDS011;59543;37.950;-122.338;2023-08-06T12:59:28;41.05;;;11.38;;
70010;SDS011;59543;37.950;-122.338;2023-08-06T13:01:55;48.17;;;11.68;;
70010;SDS011;59543;37.950;-122.338;2023-08-06T13:04:21;44.28;;;10.90;;
70010;SDS011;59543;37.950;-122.338;2023-08-06T13:06:47;48.58;;;12.57;;
70010;SDS011;59543;37.950;-122.338;2023-08-06T13:09:14;50.47;;;12.30;;
70010;SDS011;59543;37.950;-122.338;2023-08-06T13:11:41;49.33;;;12.30;;
70010;SDS011;59543;37.950;-122.338;2023-08-06T13:14:11;40.30;;;10.73;;
70010;SDS011;59543;37.950;-122.338;2023-08-06T13:16:40;44.80;;;11.80;;
70010;SDS011;59543;37.950;-122.338;2023-08-06T13:19:08;48.13;;;12.00;;
70010;SDS011;59543;37.950;-122.338;2023-08-06T13:21:35;44.67;;;10.63;;
70010;SDS011;59543;37.950;-122.338;2023-08-06T13:24:21;51.58;;;12.27;;
70010;SDS011;59543;37.950;-122.338;2023-08-06T13:26:47;42.95;;;12.05;;
70010;SDS011;59543;37.950;-122.338;2023-08-06T13:29:14;46.45;;;11.88;;
70010;SDS011;59543;37.950;-122.338;2023-08-06T13:31:40;45.97;;;11.93;;
70010;SDS011;59543;37.950;-122.338;2023-08-06T13:34:06;38.55;;;11.18;;
70010;SDS011;59543;37.950;-122.338;2023-08-06T13:36:32;56.22;;;12.15;;
70010;SDS011;59543;37.950;-122.338;2023-08-06T13:38:59;44.03;;;11.65;;
70010;SDS011;59543;37.950;-122.338;2023-08-06T13:41:26;56.75;;;12.60;;
70010;SDS011;59543;37.950;-122.338;2023-08-06T13:43:52;48.33;;;11.55;;
70010;SDS011;59543;37.950;-122.338;2023-08-06T13:46:18;40.28;;;10.60;;
70010;SDS011;59543;37.950;-122.338;2023-08-06T13:48:45;43.53;;;10.38;;
70010;SDS011;59543;37.950;-122.338;2023-08-06T13:51:13;36.92;;;10.45;;
70010;SDS011;59543;37.950;-122.338;2023-08-06T13:53:40;42.35;;;10.55;;
70010;SDS011;59543;37.950;-122.338;2023-08-06T13:56:09;40.33;;;10.13;;
70010;SDS011;59543;37.950;-122.338;2023-08-06T13:58:36;43.38;;;10.55;;
70010;SDS011;59543;37.950;-122.338;2023-08-06T14:01:03;43.22;;;11.50;;
70010;SDS011;59543;37.950;-122.338;2023-08-06T14:03:30;40.78;;;11.38;;
70010;SDS011;59543;37.950;-122.338;2023-08-06T14:05:56;44.25;;;11.65;;